Terminal Aerodrome Forecast
Issued by NWS Jackson, MS

Home | Current Version | Previous Version | Text Only | Print | Product List | Glossary On
Versions: 1 2 3 4 5 6 7 8 9 10 11 12 13 14 15 16 17 18 19 20
542
FTUS44 KJAN 290530
TAFGWO
TAF
KGWO 290530Z 2906/3006 19005KT P6SM SKC
     FM290700 21003KT 6SM BR BKN015
     FM291100 00000KT 5SM BR BKN009
     FM291400 23006KT P6SM VCSH BKN025
     FM291700 24006KT P6SM VCTS BKN035CB
     FM300000 19003KT P6SM SCT040=

USA.gov is the U.S. government's official web portal to all federal, state and local government web resources and services.